Lynn, Alabama
Current Conditions -  °F | °C
As of 5:56 AM on Friday 28 Nov 2014 (Local Time) from K1M4 Reporting Station
Clear Clear  
Wind Chill: -6°   Ceiling: Unl
Heat Index: -6°   Visibility: 8mi
Dew Point: -6°   Wind: 0mph
Humidity: 96%   Direction: NA
Pressure: 30.44"   Gusts: NA
Location:  34.05°N, 87.55°W
Report Text: K1M4 281156Z AUTO 00000KT 8SM CLR M06/M06 A3044 RMK AO2 53000 T10551061 11027 21055 SLP317
Loading
Personal Weather Stations






























Interactive Weather Map New forecast layout! Learn more

10-Day Weather Forecast

Advertisements
Track Severe Weather on mobile